This is the latest recevied weather packets stored in our database for station/object XE2G-31. If no packets are shown the sender has not sent any weather packets the latest 10 day(s).
| Time | Temp. | Humidity | Pressure | Rain* | Wind** | Luminosity | Snow |
|---|---|---|---|---|---|---|---|
| 1778088166 | 34.44° C | 27% | 869 hPa | - | - | - | - |
| 1778087220 | 35° C | 25% | 869 hPa | - | - | - | - |
| 1778086273 | 35° C | 27% | 869 hPa | - | - | - | - |
| 1778085326 | 33.89° C | 27% | 869 hPa | - | - | - | - |
| 1778084379 | 34.44° C | 28% | 869 hPa | - | - | - | - |
| 1778083432 | 34.44° C | 24% | 869 hPa | - | - | - | - |
| 1778082485 | 34.44° C | 22% | 869 hPa | - | - | - | - |
| 1778081538 | 34.44° C | 23% | 869 hPa | - | - | - | - |
| 1778080592 | 33.89° C | 23% | 869 hPa | - | - | - | - |
| 1778079645 | 33.89° C | 22% | 869 hPa | - | - | - | - |
| 1778078698 | 33.89° C | 24% | 869 hPa | - | - | - | - |
| 1778077751 | 32.22° C | 25% | 869 hPa | - | - | - | - |
| 1778076804 | 31.67° C | 26% | 869 hPa | - | - | - | - |
| 1778075857 | 30° C | 27% | 869 hPa | - | - | - | - |
| 1778074910 | 30° C | 27% | 868 hPa | - | - | - | - |
| 1778073964 | 30° C | 29% | 868 hPa | - | - | - | - |
| 1778073017 | 30° C | 29% | 868 hPa | - | - | - | - |
| 1778072070 | 28.33° C | 32% | 868 hPa | - | - | - | - |
| 1778071123 | 26.11° C | 38% | 868 hPa | - | - | - | - |
| 1778070176 | 25° C | 43% | 868 hPa | - | - | - | - |
| 1778069229 | 25° C | 45% | 868 hPa | - | - | - | - |
| 1778068283 | 24.44° C | 46% | 867 hPa | - | - | - | - |
| 1778067336 | 25° C | 41% | 867 hPa | - | - | - | - |
| 1778066389 | 25° C | 42% | 867 hPa | - | - | - | - |
| 1778065442 | 25° C | 41% | 867 hPa | - | - | - | - |
* Rain since midnight (hover to see other rain measurements)
** Current wind speed in m/s (hover to see current wind gust speed)